Time;durP1;ratioP1;P1;durP2;ratioP2;P2;SDS_P1;SDS_P2;PMS_P1;PMS_P2;Temp;Humidity;BMP_temperature;BMP_pressure;BME280_temperature;BME280_humidity;BME280_pressure;Samples;Min_cycle;Max_cycle;Signal;HPM_P1;HPM_P2
2022/12/01 00:02:21;;;;;;;12.65;9.95;;;;;;;16.60;60.70;102917.00;6334741;22;20058;-85
2022/12/01 00:04:47;;;;;;;12.45;8.48;;;;;;;16.60;60.65;102917.88;6331752;22;20012;-86
2022/12/01 00:07:13;;;;;;;14.45;10.02;;;;;;;16.59;60.83;102913.53;6308776;22;19988;-83
2022/12/01 00:12:32;;;;;;;13.90;9.43;;;;;;;16.59;60.60;102918.72;6313501;22;20041;-84
2022/12/01 00:15:01;;;;;;;13.55;9.88;;;;;;;16.58;60.51;102916.94;6284373;22;19997;-83
2022/12/01 00:20:54;;;;;;;12.95;9.20;;;;;;;16.59;60.54;102915.22;6335980;22;20010;-84
2022/12/01 00:23:22;;;;;;;12.20;9.13;;;;;;;16.58;60.66;102914.34;6282686;22;19999;-84
2022/12/01 00:25:47;;;;;;;11.80;8.90;;;;;;;16.59;60.56;102910.03;6334901;22;19990;-84
2022/12/01 00:28:20;;;;;;;12.52;9.43;;;;;;;16.58;60.67;102910.88;6334173;22;19983;-84
2022/12/01 00:30:45;;;;;;;12.30;9.27;;;;;;;16.57;60.72;102911.69;6333898;22;19999;-84
2022/12/01 00:33:14;;;;;;;12.10;9.52;;;;;;;16.59;60.73;102910.03;6334710;22;20059;-84
2022/12/01 01:34:24;;;;;;;13.13;9.27;;;;;;;16.55;60.10;102935.06;6251617;22;20006;-84
2022/12/01 01:36:49;;;;;;;11.15;9.07;;;;;;;16.55;60.06;102940.28;6332342;22;20015;-83
2022/12/01 01:39:16;;;;;;;12.70;9.48;;;;;;;16.55;60.16;102931.56;6333955;22;20336;-84
2022/12/01 01:41:42;;;;;;;11.90;9.25;;;;;;;16.54;60.29;102933.28;6280226;22;20298;-83
2022/12/01 01:44:47;;;;;;;12.05;9.40;;;;;;;16.55;60.17;102923.78;6334939;22;20057;-84
2022/12/01 01:47:16;;;;;;;11.20;8.38;;;;;;;16.53;60.15;102936.75;6310697;22;20003;-83
2022/12/01 01:49:42;;;;;;;11.63;9.40;;;;;;;16.52;60.35;102927.16;6284783;22;20007;-83
2022/12/01 01:52:08;;;;;;;13.60;8.80;;;;;;;16.53;59.90;102933.28;6333444;22;19999;-83
2022/12/01 01:54:40;;;;;;;11.20;9.32;;;;;;;16.54;60.08;102938.50;6333769;22;20006;-84
2022/12/01 01:57:08;;;;;;;11.55;9.10;;;;;;;16.54;60.07;102932.44;6306574;22;20003;-83
2022/12/01 01:59:43;;;;;;;12.20;9.30;;;;;;;16.53;60.05;102928.06;6307585;22;20062;-83
2022/12/01 02:02:15;;;;;;;11.85;9.18;;;;;;;16.53;60.09;102928.06;6281648;22;19988;-84
2022/12/01 02:04:47;;;;;;;11.35;9.07;;;;;;;16.53;59.90;102920.28;6332087;22;20063;-83
2022/12/01 02:07:16;;;;;;;11.43;8.85;;;;;;;16.53;60.11;102920.28;6320904;22;19999;-83
2022/12/01 02:09:44;;;;;;;13.48;9.30;;;;;;;16.52;60.08;102921.97;6307478;22;19999;-83
2022/12/01 02:12:46;;;;;;;13.00;10.02;;;;;;;16.54;59.87;102924.63;6279433;22;20007;-84
2022/12/01 02:15:35;;;;;;;10.73;9.30;;;;;;;16.54;60.10;102922.03;6303944;22;20003;-83
2022/12/01 02:18:18;;;;;;;12.73;9.65;;;;;;;16.53;59.74;102915.97;6308454;22;20070;-85
2022/12/01 02:21:06;;;;;;;10.07;8.57;;;;;;;16.53;59.88;102917.69;6309150;22;20032;-84
2022/12/01 02:24:06;;;;;;;11.55;9.20;;;;;;;16.51;59.86;102915.03;6310517;22;20007;-84
2022/12/01 02:27:25;;;;;;;10.70;8.60;;;;;;;16.51;59.88;102909.84;6335238;22;20009;-83
2022/12/01 02:29:57;;;;;;;12.02;9.50;;;;;;;16.53;59.93;102909.88;6270376;22;19999;-83
2022/12/01 02:33:02;;;;;;;10.48;8.70;;;;;;;16.51;59.91;102912.44;6306164;22;20003;-83
2022/12/01 02:35:49;;;;;;;10.48;9.25;;;;;;;16.51;59.88;102915.03;6306781;22;20045;-83
2022/12/01 02:38:44;;;;;;;11.65;9.07;;;;;;;16.51;60.01;102912.44;6331987;22;20004;-84
2022/12/01 02:41:19;;;;;;;11.68;9.13;;;;;;;16.49;59.96;102915.84;6306106;22;20041;-83
2022/12/01 02:44:19;;;;;;;11.63;8.73;;;;;;;16.51;59.78;102912.44;6306524;22;20010;-83
2022/12/01 02:46:56;;;;;;;12.40;9.48;;;;;;;16.49;59.75;102910.63;6280629;22;19999;-84
2022/12/01 02:49:31;;;;;;;11.38;9.15;;;;;;;16.49;59.88;102915.84;6298080;22;20007;-83
2022/12/01 02:51:57;;;;;;;11.27;8.80;;;;;;;16.49;60.00;102906.31;6333172;22;19998;-83
2022/12/01 02:54:31;;;;;;;11.45;9.43;;;;;;;16.48;59.73;102917.53;6279674;22;20005;-83
2022/12/01 02:57:05;;;;;;;10.50;8.55;;;;;;;16.49;59.94;102921.91;6306136;22;19988;-83
2022/12/01 02:59:31;;;;;;;10.07;8.35;;;;;;;16.48;59.79;102921.84;6310458;22;19987;-84
2022/12/01 03:02:23;;;;;;;10.40;8.85;;;;;;;16.47;59.75;102912.31;6283244;22;20058;-84
2022/12/01 03:05:17;;;;;;;9.90;8.27;;;;;;;16.49;59.66;102926.22;6309400;22;20025;-83
2022/12/01 03:08:02;;;;;;;;;;;;;;;16.49;59.66;102915.84;6309937;22;20138;-85
2022/12/01 03:14:11;;;;;;;11.00;8.73;;;;;;;16.49;59.56;102923.63;6334859;22;20049;-83
2022/12/01 03:16:48;;;;;;;11.13;8.82;;;;;;;16.49;59.60;102926.22;6308323;22;20003;-83
2022/12/01 03:19:39;;;;;;;12.38;9.35;;;;;;;16.47;59.56;102933.09;6334229;22;20021;-84
2022/12/01 03:22:32;;;;;;;10.52;8.90;;;;;;;16.45;59.70;102931.31;6305153;22;19999;-83
2022/12/01 03:25:00;;;;;;;11.65;9.32;;;;;;;16.48;59.59;102934.84;6304682;22;20095;-83
2022/12/01 03:27:39;;;;;;;9.73;8.70;;;;;;;16.46;59.63;102934.78;6305227;22;20014;-85
2022/12/01 03:30:11;;;;;;;11.80;9.15;;;;;;;16.47;59.62;102938.28;6307093;22;20033;-83
2022/12/01 03:46:22;;;;;;;10.77;8.68;;;;;;;16.47;59.62;102925.31;6275219;22;20025;-83
2022/12/01 03:48:55;;;;;;;10.45;8.98;;;;;;;16.45;59.65;102925.25;6295431;22;20021;-83
2022/12/01 06:02:53;;;;;;;12.80;9.30;;;;;;;16.36;58.91;102940.59;6243757;22;21142;31
2022/12/01 06:05:18;;;;;;;15.68;10.65;;;;;;;16.35;58.61;102941.41;6185542;23;20012;-81
2022/12/01 06:07:43;;;;;;;16.13;9.70;;;;;;;16.36;59.04;102940.59;6214240;23;20043;-82
2022/12/01 06:10:23;;;;;;;19.77;10.85;;;;;;;16.36;59.13;102945.78;6215141;22;19992;-84
2022/12/01 06:12:59;;;;;;;18.50;10.60;;;;;;;16.36;59.27;102941.44;6284608;22;20359;-81
2022/12/01 06:15:25;;;;;;;18.08;11.07;;;;;;;16.36;59.06;102948.38;6231019;22;20004;-80
2022/12/01 06:17:50;;;;;;;18.65;10.27;;;;;;;16.35;59.14;102950.09;6252945;22;20306;-81
2022/12/01 06:20:16;;;;;;;18.73;10.95;;;;;;;16.35;58.77;102949.19;6282407;22;20030;-82
2022/12/01 06:22:41;;;;;;;15.50;10.32;;;;;;;16.33;58.92;102943.97;6252485;22;20007;-82
2022/12/01 06:25:07;;;;;;;20.42;10.98;;;;;;;16.34;59.23;102953.53;6264586;22;20007;-82
2022/12/01 06:27:34;;;;;;;16.10;10.43;;;;;;;16.32;59.27;102951.72;6302853;22;20004;-82
2022/12/01 06:29:59;;;;;;;17.05;10.52;;;;;;;16.32;59.21;102955.19;6248243;22;20014;-84
2022/12/01 06:32:25;;;;;;;17.30;11.57;;;;;;;16.32;58.99;102954.31;6273299;22;20003;-82
2022/12/01 06:34:51;;;;;;;21.67;11.55;;;;;;;16.31;59.30;102949.94;6297206;22;20057;-84
2022/12/01 06:37:17;;;;;;;14.73;10.45;;;;;;;16.31;59.29;102947.34;6299465;22;20015;-83
2022/12/01 06:39:43;;;;;;;16.40;10.40;;;;;;;16.31;59.32;102953.44;6271938;22;20007;-85
2022/12/01 06:42:08;;;;;;;16.52;10.70;;;;;;;16.30;59.19;102950.78;6247606;22;19996;-84
2022/12/01 06:44:40;;;;;;;19.50;11.32;;;;;;;16.29;59.33;102949.91;6302273;22;20002;-83
2022/12/01 06:47:12;;;;;;;17.67;10.65;;;;;;;16.31;59.27;102957.72;6272115;22;20015;-83
2022/12/01 06:49:40;;;;;;;18.33;11.13;;;;;;;16.30;59.37;102959.47;6276600;22;20011;-84
2022/12/01 06:52:10;;;;;;;15.63;10.93;;;;;;;16.29;59.31;102960.31;6303490;22;20011;-84
2022/12/01 06:54:36;;;;;;;18.42;10.88;;;;;;;16.30;59.28;102961.19;6300554;22;19995;-80
2022/12/01 07:00:26;;;;;;;25.42;11.77;;;;;;;16.37;59.33;102971.78;6287532;22;20080;-82
2022/12/01 07:02:52;;;;;;;22.83;12.27;;;;;;;16.34;59.60;102966.50;6268637;22;20007;-83
2022/12/01 07:05:18;;;;;;;25.10;12.38;;;;;;;16.34;59.34;102969.09;6284011;22;20640;-82
2022/12/01 07:07:43;;;;;;;21.42;12.05;;;;;;;16.35;59.35;102967.38;6260481;22;20007;-81
2022/12/01 07:10:10;;;;;;;21.20;11.68;;;;;;;16.35;59.27;102975.19;6229635;22;20010;-82
2022/12/01 07:12:38;;;;;;;20.90;11.73;;;;;;;16.36;59.27;102980.44;6257346;22;20322;-83
2022/12/01 07:15:07;;;;;;;23.60;11.15;;;;;;;16.34;59.44;102976.03;6272723;22;20023;-83
2022/12/01 07:17:35;;;;;;;20.13;11.88;;;;;;;16.33;59.18;102980.34;6277581;22;20007;-82
2022/12/01 07:20:01;;;;;;;18.80;11.55;;;;;;;16.33;59.44;102982.03;6275096;22;20037;-83
2022/12/01 07:22:35;;;;;;;19.70;10.93;;;;;;;16.34;59.40;102986.44;6276382;22;20030;-82
2022/12/01 07:28:24;;;;;;;21.10;11.50;;;;;;;16.34;59.37;103002.88;6300442;22;20023;-84
2022/12/01 07:30:52;;;;;;;18.80;10.93;;;;;;;16.34;59.36;102995.09;6274033;22;20004;-83
2022/12/01 07:39:10;;;;;;;18.17;11.13;;;;;;;16.32;59.18;103014.06;6315602;22;20841;-84
2022/12/01 07:41:35;;;;;;;16.65;11.27;;;;;;;16.32;59.01;103016.69;6284676;22;20050;-84
2022/12/01 07:44:02;;;;;;;18.10;11.13;;;;;;;16.31;59.17;103020.09;6335880;22;19987;-86
2022/12/01 07:46:29;;;;;;;18.95;11.65;;;;;;;16.31;58.98;103014.88;6285356;22;20095;-86
2022/12/01 07:48:58;;;;;;;17.40;11.32;;;;;;;16.29;59.29;103007.06;6325114;22;19998;-85
2022/12/01 07:54:29;;;;;;;16.35;10.50;;;;;;;16.29;59.20;103016.56;6335832;22;20367;-85
2022/12/01 07:56:57;;;;;;;17.42;10.95;;;;;;;16.30;59.35;103026.13;6283234;22;20008;-86
2022/12/01 07:59:23;;;;;;;18.38;11.20;;;;;;;16.28;59.23;103020.88;6258319;22;20011;-84
2022/12/01 08:01:48;;;;;;;17.10;11.20;;;;;;;16.29;59.32;103021.75;6256939;22;20059;-84
2022/12/01 08:04:14;;;;;;;17.60;10.93;;;;;;;16.27;59.17;103018.25;6308656;22;20051;-86
2022/12/01 08:06:52;;;;;;;19.35;11.13;;;;;;;16.27;59.14;103029.53;6309281;22;19988;-85
2022/12/01 08:09:19;;;;;;;15.23;10.98;;;;;;;16.28;59.10;103031.28;6309244;22;19994;-86
2022/12/01 08:11:50;;;;;;;17.08;11.32;;;;;;;16.29;58.97;103038.25;6308195;22;20007;-84
2022/12/01 08:14:17;;;;;;;15.90;10.57;;;;;;;16.27;59.00;103033.84;6285356;22;20016;-85
2022/12/01 08:16:43;;;;;;;16.63;10.43;;;;;;;16.27;59.23;103039.91;6292085;22;20021;-87
2022/12/01 08:19:20;;;;;;;15.23;10.82;;;;;;;16.29;59.09;103042.53;6282858;22;20028;-84
2022/12/01 08:21:53;;;;;;;18.27;11.60;;;;;;;16.27;58.82;103039.91;6306057;22;20003;-84
2022/12/01 08:24:27;;;;;;;15.57;10.43;;;;;;;16.27;58.92;103039.91;6308720;22;20022;-85
2022/12/01 08:26:53;;;;;;;16.20;11.40;;;;;;;16.28;58.95;103038.19;6309140;22;20018;-84
2022/12/01 08:29:19;;;;;;;14.40;10.20;;;;;;;16.26;59.08;103045.94;6282464;22;20014;-83
2022/12/01 08:32:04;;;;;;;15.00;10.77;;;;;;;16.26;58.84;103040.75;6210327;23;20015;-87
2022/12/01 08:34:30;;;;;;;16.98;11.13;;;;;;;16.24;59.16;103040.72;6266500;22;20013;-85
2022/12/01 08:36:55;;;;;;;16.88;10.80;;;;;;;16.27;58.80;103044.25;6235553;23;20016;-85
2022/12/01 08:39:25;;;;;;;16.23;10.63;;;;;;;16.26;59.09;103043.34;6186192;23;19997;-85
2022/12/01 08:41:51;;;;;;;17.52;11.23;;;;;;;16.27;58.79;103045.13;6184928;23;20005;-83
2022/12/01 08:44:25;;;;;;;16.95;10.95;;;;;;;16.29;58.77;103047.75;6187165;23;20004;-84
2022/12/01 08:46:50;;;;;;;15.88;11.27;;;;;;;16.25;58.88;103032.06;6186156;23;20004;-84
2022/12/01 08:49:19;;;;;;;18.02;11.38;;;;;;;16.25;59.10;103036.38;6187341;23;19989;-85
2022/12/01 08:55:20;;;;;;;15.77;10.60;;;;;;;16.27;58.86;103039.91;6212317;23;20096;-84
2022/12/01 08:57:54;;;;;;;14.60;10.50;;;;;;;16.27;58.81;103037.31;6212194;23;19994;-86
2022/12/01 09:00:23;;;;;;;13.93;10.27;;;;;;;16.26;58.80;103038.13;6186611;23;19996;-85
2022/12/01 09:02:51;;;;;;;14.35;10.20;;;;;;;16.28;58.92;103031.28;6162098;23;20068;-84
2022/12/01 09:05:16;;;;;;;15.10;10.52;;;;;;;16.25;58.69;103026.88;6185262;23;20004;-85
2022/12/01 09:07:44;;;;;;;15.95;11.02;;;;;;;16.29;58.67;103029.56;6211193;23;19989;-87
2022/12/01 09:10:10;;;;;;;16.15;10.90;;;;;;;16.28;58.60;103023.47;6258579;22;20008;-87
2022/12/01 09:12:35;;;;;;;14.40;11.07;;;;;;;16.30;58.79;103015.75;6265432;22;20043;-84
2022/12/01 09:15:09;;;;;;;15.68;10.63;;;;;;;16.31;58.64;103027.88;6276336;22;19998;-86
2022/12/01 09:17:34;;;;;;;14.27;10.70;;;;;;;16.31;58.86;103026.19;6278068;22;20424;-86
2022/12/01 09:20:00;;;;;;;13.48;10.35;;;;;;;16.32;58.75;103030.53;6276016;22;20022;-87
2022/12/01 09:22:26;;;;;;;14.18;10.77;;;;;;;16.32;58.62;103032.25;6301757;22;20011;-83
2022/12/01 09:24:54;;;;;;;16.10;10.77;;;;;;;16.33;58.58;103028.81;6250993;22;20027;-86
2022/12/01 09:27:20;;;;;;;14.48;10.52;;;;;;;16.32;58.64;103034.88;6252317;22;20000;-86
2022/12/01 09:29:45;;;;;;;15.40;10.68;;;;;;;16.32;58.61;103037.47;6304384;22;20022;-84
2022/12/01 09:32:15;;;;;;;13.05;10.23;;;;;;;16.30;58.54;103037.41;6278808;22;19988;-84
2022/12/01 09:34:50;;;;;;;15.25;10.40;;;;;;;16.31;58.51;103034.00;6304319;22;19987;-84
2022/12/01 09:37:38;;;;;;;12.70;9.43;;;;;;;16.32;58.77;103033.13;6278574;22;20059;-84
2022/12/01 09:40:06;;;;;;;14.00;11.18;;;;;;;16.30;58.46;103024.41;6276587;22;20034;-85
2022/12/01 09:42:32;;;;;;;14.68;10.55;;;;;;;16.31;58.47;103025.28;6277063;22;19996;-85
2022/12/01 09:45:01;;;;;;;12.50;10.05;;;;;;;16.30;58.44;103031.34;6277915;22;20307;-84
2022/12/01 09:51:16;;;;;;;12.80;9.73;;;;;;;16.31;58.35;103044.38;6242900;23;20035;-85
2022/12/01 09:54:02;;;;;;;14.05;9.88;;;;;;;16.30;58.63;103027.00;6240859;23;20048;-85
2022/12/01 09:56:41;;;;;;;13.38;10.35;;;;;;;16.30;58.50;103029.59;6231140;23;20057;-83
2022/12/01 09:59:34;;;;;;;12.98;10.23;;;;;;;16.29;58.51;103033.06;6220799;23;20009;-84
2022/12/01 10:02:21;;;;;;;15.00;10.52;;;;;;;16.29;58.40;103030.47;6239013;23;20018;-84
2022/12/01 10:04:50;;;;;;;13.43;10.48;;;;;;;16.27;58.58;103024.34;6218726;23;20068;-84
2022/12/01 10:07:24;;;;;;;14.07;10.25;;;;;;;16.31;58.43;103031.38;6243923;23;20004;-85
2022/12/01 10:10:10;;;;;;;13.20;10.10;;;;;;;16.30;58.57;103032.22;6241590;23;20036;-85
2022/12/01 10:12:40;;;;;;;13.98;10.60;;;;;;;16.30;58.47;103023.53;6217719;23;19989;-85
2022/12/01 10:15:35;;;;;;;14.40;10.60;;;;;;;16.30;58.37;103020.94;6243616;23;20009;-84
2022/12/01 10:21:49;;;;;;;14.30;10.15;;;;;;;16.31;58.58;103022.69;6279415;22;20011;-84
2022/12/01 10:24:30;;;;;;;12.77;9.77;;;;;;;16.30;58.42;103018.34;6279815;22;20002;-84
2022/12/01 10:27:40;;;;;;;14.43;10.65;;;;;;;16.30;58.50;103018.34;6302964;22;20012;-84
2022/12/01 10:30:15;;;;;;;12.32;10.25;;;;;;;16.29;58.57;103019.16;6303362;22;20015;-84
2022/12/01 10:33:07;;;;;;;12.65;10.18;;;;;;;16.30;58.25;103023.53;6222614;22;20010;-86
2022/12/01 10:35:38;;;;;;;14.13;10.57;;;;;;;16.28;58.56;103018.28;6303664;22;20000;-85
2022/12/01 10:38:12;;;;;;;13.35;10.13;;;;;;;16.29;58.68;103020.06;6274383;22;20004;-83
2022/12/01 10:40:59;;;;;;;14.63;10.75;;;;;;;16.30;58.25;103018.34;6245440;23;20039;-84
2022/12/01 10:44:04;;;;;;;13.48;10.52;;;;;;;16.29;58.55;103004.47;6257882;22;20019;-84
2022/12/01 10:46:54;;;;;;;14.73;10.75;;;;;;;16.29;58.35;103004.47;6285651;22;20008;-84
2022/12/01 10:49:35;;;;;;;13.88;10.55;;;;;;;16.29;58.47;103009.69;6272306;22;19984;-84
2022/12/01 10:52:06;;;;;;;14.10;10.50;;;;;;;16.26;58.43;102996.56;6272826;23;20009;-85
2022/12/01 10:54:42;;;;;;;12.77;10.00;;;;;;;16.28;58.31;103002.69;6271012;23;19988;-84
2022/12/01 10:57:16;;;;;;;14.45;10.52;;;;;;;16.27;58.45;102993.16;6273048;22;19996;-85
2022/12/01 11:00:13;;;;;;;12.52;10.20;;;;;;;16.29;58.49;103000.97;6258076;23;20008;-84
2022/12/01 11:02:42;;;;;;;14.38;10.27;;;;;;;16.27;58.32;102990.56;6256584;22;20004;-84
2022/12/01 11:05:27;;;;;;;12.68;10.13;;;;;;;16.28;58.24;102979.31;6268127;22;19996;-85
2022/12/01 11:08:32;;;;;;;12.45;10.05;;;;;;;16.29;58.55;102983.69;6273871;23;20007;-84
2022/12/01 11:11:20;;;;;;;13.52;10.32;;;;;;;16.26;58.54;102970.59;6275117;22;20019;-84
2022/12/01 11:14:04;;;;;;;13.32;10.15;;;;;;;16.28;58.48;102988.84;6274378;22;20085;-85
2022/12/01 11:16:42;;;;;;;11.70;9.20;;;;;;;16.28;58.28;102986.22;6299756;22;20004;-85
2022/12/01 11:19:33;;;;;;;12.85;9.82;;;;;;;16.30;58.42;102992.34;6250419;22;20055;-85
2022/12/01 11:22:17;;;;;;;12.85;9.60;;;;;;;16.28;58.63;102981.03;6237393;23;20008;-84
2022/12/01 11:24:54;;;;;;;12.50;9.45;;;;;;;16.29;58.46;102981.09;6252193;23;20549;-85
2022/12/01 11:31:10;;;;;;;12.20;9.70;;;;;;;16.29;58.39;102970.69;6274868;22;20011;-85
2022/12/01 11:33:51;;;;;;;12.07;9.95;;;;;;;16.26;58.23;102957.59;6274126;22;20012;-84
2022/12/01 11:36:43;;;;;;;11.30;9.48;;;;;;;16.27;58.04;102961.97;6271656;22;20021;-86
2022/12/01 11:39:43;;;;;;;12.82;9.10;;;;;;;16.28;58.35;102961.13;6273666;22;19995;-84
2022/12/01 11:42:33;;;;;;;13.32;9.32;;;;;;;16.29;58.20;102965.50;6278057;22;20019;-85
2022/12/01 11:45:21;;;;;;;12.90;9.50;;;;;;;16.30;58.32;102963.78;6314872;22;20003;-86
2022/12/01 11:48:24;;;;;;;11.77;9.68;;;;;;;16.28;58.27;102963.72;6335520;22;20030;-87
2022/12/01 11:51:46;;;;;;;11.95;8.77;;;;;;;16.29;58.33;102962.00;6306658;22;20011;-85
2022/12/01 11:54:24;;;;;;;11.60;9.32;;;;;;;16.29;58.26;102955.13;6308049;22;19991;-84
2022/12/01 11:57:09;;;;;;;11.15;9.10;;;;;;;16.30;57.95;102956.00;6309738;22;20071;-85
2022/12/01 11:59:55;;;;;;;13.70;9.32;;;;;;;16.30;58.16;102953.38;6309726;22;20007;-84
2022/12/01 12:02:34;;;;;;;11.65;8.98;;;;;;;16.30;57.82;102943.88;6307779;22;19995;-88
2022/12/01 12:05:33;;;;;;;11.50;9.07;;;;;;;16.33;57.93;102956.06;6295882;22;20010;-86
2022/12/01 12:08:37;;;;;;;12.07;9.18;;;;;;;16.31;57.89;102944.75;6309668;22;19995;-84
2022/12/01 12:15:03;;;;;;;11.15;8.48;;;;;;;16.32;57.92;102946.53;6335724;22;20025;-87
2022/12/01 12:17:58;;;;;;;11.80;9.00;;;;;;;16.33;57.83;102945.66;6308228;22;20061;-85
2022/12/01 12:20:53;;;;;;;11.15;9.25;;;;;;;16.32;57.63;102951.72;6308800;22;20018;-85
2022/12/01 12:23:49;;;;;;;10.95;8.98;;;;;;;16.33;57.72;102950.88;6308949;22;20007;-84
2022/12/01 12:33:17;;;;;;;10.13;7.85;;;;;;;16.32;57.65;102947.41;6336232;22;20005;-86
2022/12/01 12:36:37;;;;;;;11.30;9.20;;;;;;;16.32;57.60;102939.59;6307711;22;20007;-85
2022/12/01 12:39:46;;;;;;;10.23;8.32;;;;;;;16.34;57.42;102939.66;6329565;22;20021;-84
2022/12/01 12:42:40;;;;;;;10.52;8.35;;;;;;;16.34;57.43;102937.06;6308186;22;19987;-85
2022/12/01 12:45:28;;;;;;;;;;;;;;;16.33;57.31;102936.19;6300252;22;20019;-83
2022/12/01 12:48:22;;;;;;;11.57;8.43;;;;;;;16.32;57.53;102941.31;6292935;22;19910;-86
2022/12/01 12:51:04;;;;;;;9.82;8.20;;;;;;;16.32;57.50;102930.94;6303880;22;19992;-85
2022/12/01 12:56:58;;;;;;;10.07;8.00;;;;;;;16.33;57.59;102940.47;6304007;22;20026;-86
2022/12/01 12:59:35;;;;;;;9.15;7.88;;;;;;;16.33;57.44;102935.28;6303699;22;19999;-85
2022/12/01 13:02:25;;;;;;;9.65;8.00;;;;;;;16.34;57.29;102931.84;6304471;22;20014;-85
2022/12/01 13:05:01;;;;;;;10.18;8.18;;;;;;;16.35;57.33;102934.50;6302242;22;20014;-85
2022/12/01 13:08:18;;;;;;;9.25;7.75;;;;;;;16.34;57.50;102935.34;6279164;22;19999;-84
2022/12/01 13:11:30;;;;;;;8.23;6.97;;;;;;;16.34;57.39;102931.84;6239078;22;19992;-84
2022/12/01 13:14:40;;;;;;;8.82;7.55;;;;;;;16.33;57.22;102933.59;6272696;22;20020;-84
2022/12/01 13:17:13;;;;;;;10.50;7.72;;;;;;;16.32;57.33;102926.59;6246555;22;19996;-84
2022/12/01 13:19:46;;;;;;;11.25;8.45;;;;;;;16.33;57.38;102927.47;6271191;22;19988;-84
2022/12/01 13:22:26;;;;;;;9.45;7.45;;;;;;;16.32;57.42;102928.34;6270814;23;20019;-85
2022/12/01 13:24:51;;;;;;;8.68;7.10;;;;;;;16.34;57.13;102924.06;6242188;23;20004;-84
2022/12/01 13:27:27;;;;;;;8.80;7.15;;;;;;;16.34;57.25;102924.94;6268909;23;20407;-85
2022/12/01 13:29:54;;;;;;;8.70;7.57;;;;;;;16.31;57.02;102922.25;6235672;23;20015;-85
2022/12/01 13:32:25;;;;;;;9.95;7.50;;;;;;;16.32;57.16;102918.81;6246480;23;19992;-84
2022/12/01 13:34:50;;;;;;;10.05;7.57;;;;;;;16.30;57.42;102923.09;6245828;22;19985;-85
2022/12/01 13:37:32;;;;;;;9.63;7.70;;;;;;;16.33;57.41;102925.78;6247288;22;19996;-86
2022/12/01 13:40:22;;;;;;;8.23;6.97;;;;;;;16.33;57.08;102919.69;6244794;23;19991;-86
2022/12/01 13:43:05;;;;;;;10.05;7.40;;;;;;;16.33;57.27;102915.41;6247768;23;20017;-85
2022/12/01 13:45:41;;;;;;;8.40;7.25;;;;;;;16.32;57.52;102912.75;6290832;22;20019;-84
2022/12/01 13:48:29;;;;;;;9.30;7.28;;;;;;;16.30;57.40;102906.63;6303060;22;20004;-86
2022/12/01 13:51:08;;;;;;;8.82;7.22;;;;;;;16.29;57.31;102904.84;6305483;22;20031;-84
2022/12/01 13:57:12;;;;;;;8.45;7.03;;;;;;;16.30;57.38;102898.81;6306535;22;20027;-86
2022/12/01 14:00:02;;;;;;;8.77;7.00;;;;;;;16.29;57.51;102897.03;6304855;22;19987;-86
2022/12/01 14:02:35;;;;;;;8.57;6.95;;;;;;;16.27;57.13;102894.44;6330049;22;20041;-86
2022/12/01 14:05:38;;;;;;;8.25;6.47;;;;;;;16.30;57.40;102901.44;6303397;22;19987;-86
2022/12/01 14:08:26;;;;;;;7.93;6.72;;;;;;;16.29;57.41;102900.56;6306412;22;20007;-85
2022/12/01 14:11:23;;;;;;;8.65;6.75;;;;;;;16.27;57.39;102893.56;6289106;22;20007;-85
2022/12/01 14:14:20;;;;;;;8.43;7.07;;;;;;;16.27;57.38;102896.16;6290131;22;20031;-85
2022/12/01 14:17:12;;;;;;;8.50;6.82;;;;;;;16.27;57.11;102898.75;6304063;22;20011;-86
2022/12/01 14:20:07;;;;;;;8.65;6.63;;;;;;;16.26;57.33;102903.03;6301179;22;20014;-86
2022/12/01 14:23:12;;;;;;;8.52;7.05;;;;;;;16.29;57.26;102907.44;6306097;22;19991;-85
2022/12/01 14:25:46;;;;;;;7.82;6.30;;;;;;;16.27;57.34;102903.94;6303894;22;20018;-85
2022/12/01 14:28:17;;;;;;;;;;;;;;;16.28;57.44;102905.69;6290758;22;20012;-85
2022/12/01 14:31:06;;;;;;;7.90;6.70;;;;;;;16.27;57.56;102907.41;6292725;22;19970;-85
2022/12/01 14:37:26;;;;;;;8.65;6.32;;;;;;;16.26;57.20;102897.84;6305519;22;20015;-85
2022/12/01 14:40:14;;;;;;;8.48;6.47;;;;;;;16.25;57.25;102889.19;6304711;22;20087;-85
2022/12/01 14:46:17;;;;;;;8.13;6.80;;;;;;;16.23;57.16;102884.78;6310513;22;20085;-84
2022/12/01 14:48:45;;;;;;;8.55;6.15;;;;;;;16.23;57.21;102897.78;6309770;22;20030;-85
2022/12/01 14:51:28;;;;;;;7.60;6.47;;;;;;;16.21;57.35;102881.25;6308905;22;19996;-86
2022/12/01 14:53:56;;;;;;;7.22;6.32;;;;;;;16.23;57.07;102877.00;6332805;22;20007;-83
2022/12/01 14:56:28;;;;;;;7.68;6.00;;;;;;;16.21;57.17;102883.84;6327287;22;19999;-86
2022/12/01 15:02:24;;;;;;;6.90;6.15;;;;;;;16.20;57.27;102890.78;6337137;22;20032;-85
2022/12/01 15:05:30;;;;;;;7.05;5.80;;;;;;;16.20;57.47;102887.28;6336346;22;19998;-86
2022/12/01 15:08:19;;;;;;;6.90;5.93;;;;;;;16.20;57.18;102887.28;6336158;22;19992;-87
2022/12/01 15:11:05;;;;;;;6.53;5.82;;;;;;;16.19;57.22;102886.41;6309241;22;20017;-84
2022/12/01 15:13:46;;;;;;;7.45;5.75;;;;;;;16.19;57.26;102882.94;6309239;22;20026;-85
2022/12/01 15:16:21;;;;;;;7.40;6.00;;;;;;;16.19;57.66;102889.00;6309932;22;20010;-85
2022/12/01 15:19:28;;;;;;;9.27;6.20;;;;;;;16.21;57.49;102884.72;6309310;22;20011;-85
2022/12/01 15:21:54;;;;;;;8.85;5.82;;;;;;;16.24;57.27;102878.72;6302393;22;20011;-83
2022/12/01 15:24:23;;;;;;;8.00;5.82;;;;;;;16.29;57.78;102892.75;6286413;22;20004;-79
2022/12/01 15:26:51;;;;;;;9.27;5.93;;;;;;;16.29;57.46;102891.84;6284524;22;20439;-80
2022/12/01 15:29:24;;;;;;;11.93;5.43;;;;;;;16.29;57.72;102897.97;6286814;22;20011;-81
2022/12/01 15:31:52;;;;;;;8.75;5.53;;;;;;;16.29;57.56;102891.84;6311238;22;20010;-79
2022/12/01 15:34:22;;;;;;;7.63;5.60;;;;;;;16.29;57.80;102897.97;6309255;22;19999;-80
2022/12/01 15:36:49;;;;;;;6.45;5.38;;;;;;;16.30;57.43;102885.84;6309040;22;20007;-81
2022/12/01 15:39:18;;;;;;;6.07;5.10;;;;;;;16.30;57.61;102893.63;6232413;22;20007;-80
2022/12/01 15:41:47;;;;;;;7.85;5.22;;;;;;;16.30;57.58;102893.63;6308720;22;20325;-79
2022/12/01 15:44:31;;;;;;;6.78;5.35;;;;;;;16.29;57.50;102897.03;6280652;22;20004;-79
2022/12/01 15:46:57;;;;;;;6.82;5.18;;;;;;;16.27;57.69;102896.16;6281233;22;20034;-80
2022/12/01 15:49:28;;;;;;;6.57;5.35;;;;;;;16.25;57.63;102901.28;6281051;22;20007;-79
2022/12/01 15:52:04;;;;;;;6.72;5.25;;;;;;;16.24;57.58;102899.53;6282564;22;20390;-79
2022/12/01 15:54:30;;;;;;;7.13;5.10;;;;;;;16.24;57.89;102902.13;6282842;22;20309;-79
2022/12/01 15:56:57;;;;;;;7.57;5.40;;;;;;;16.23;57.73;102900.38;6281857;22;20061;-80
2022/12/01 15:59:28;;;;;;;7.72;5.22;;;;;;;16.22;58.15;102898.59;6255909;22;20022;-80
2022/12/01 16:01:55;;;;;;;6.50;4.90;;;;;;;16.22;57.79;102908.97;6306093;22;20070;-80
2022/12/01 16:04:34;;;;;;;7.00;5.43;;;;;;;16.19;57.61;102903.72;6281462;22;20004;-80
2022/12/01 16:07:02;;;;;;;6.75;5.30;;;;;;;16.20;57.91;102908.06;6308998;22;20010;-80
2022/12/01 16:09:57;;;;;;;5.95;5.15;;;;;;;16.20;58.10;102911.56;6281718;22;20084;-81
2022/12/01 16:12:25;;;;;;;6.75;5.68;;;;;;;16.19;57.90;102912.38;6309018;22;20007;-80
2022/12/01 16:15:00;;;;;;;6.28;5.10;;;;;;;16.20;57.69;102908.97;6281363;22;20088;-80
2022/12/01 16:17:27;;;;;;;6.55;5.30;;;;;;;16.18;57.93;102902.84;6281070;22;20332;-80
2022/12/01 16:20:14;;;;;;;8.77;5.50;;;;;;;16.19;57.70;102907.19;6281650;22;20074;-81
2022/12/01 16:22:44;;;;;;;6.95;5.22;;;;;;;16.20;57.79;102910.66;6281419;22;20011;-80
2022/12/01 16:25:20;;;;;;;6.43;5.00;;;;;;;16.19;57.70;102907.19;6281621;22;20003;-80
2022/12/01 16:27:51;;;;;;;6.43;5.07;;;;;;;16.19;57.94;102906.31;6309130;22;20007;-80
2022/12/01 16:30:25;;;;;;;6.88;5.13;;;;;;;16.17;57.90;102903.66;6308875;22;20427;-80
2022/12/01 16:33:00;;;;;;;6.00;4.78;;;;;;;16.18;57.81;102904.56;6281683;22;20003;-80
2022/12/01 16:35:29;;;;;;;6.25;5.07;;;;;;;16.19;57.64;102904.59;6281765;22;19999;-80